Climax, Canada
Current Conditions -  °F | °C
As of 8:53 PM on Saturday 25 Oct 2014 (Local Time) from KHVR Reporting Station
Clear Clear  
Wind Chill: 47°   Ceiling: Unl
Heat Index: 49°   Visibility: 10mi
Dew Point: 38°   Wind: 6mph
Humidity: 66%   Direction: 100°E
Pressure: 29.59"   Gusts: NA
Location:  49.2°N, 108.38°W
Report Text: KHVR 260253Z AUTO 10005KT 10SM CLR 09/03 A2959 RMK AO2 SLP028 T00940033 57022 $
Loading
Personal Weather Stations






























Interactive Weather Map
Tropical Storm Tracking
New forecast layout! Learn more

10-Day Weather Forecast

Advertisements
Track Severe Weather on mobile